Time;durP1;ratioP1;P1;durP2;ratioP2;P2;SDS_P1;SDS_P2;PMS_P1;PMS_P2;Temp;Humidity;BMP_temperature;BMP_pressure;BME280_temperature;BME280_humidity;BME280_pressure;Samples;Min_cycle;Max_cycle;Signal;HPM_P1;HPM_P2
2022/12/09 00:00:14;;;;;;;24.03;15.90;;;0.00;99.90;;;;;;5060977;28;20043;-81
2022/12/09 00:02:40;;;;;;;18.25;13.60;;;0.00;99.90;;;;;;5094928;28;20055;-81
2022/12/09 00:05:06;;;;;;;18.13;12.90;;;0.00;99.90;;;;;;5095267;28;20048;-81
2022/12/09 00:07:34;;;;;;;18.17;13.07;;;0.00;99.90;;;;;;5094140;28;20047;-81
2022/12/09 00:10:00;;;;;;;18.77;12.98;;;0.00;99.90;;;;;;5095526;28;20754;-81
2022/12/09 00:12:25;;;;;;;17.80;11.57;;;0.00;99.90;;;;;;5095208;28;20047;-81
2022/12/09 00:14:51;;;;;;;18.60;11.77;;;0.00;99.90;;;;;;5093928;28;20083;-81
2022/12/09 00:17:17;;;;;;;16.30;11.70;;;0.00;99.90;;;;;;5094947;28;20040;-81
2022/12/09 00:19:42;;;;;;;14.10;11.43;;;0.00;99.90;;;;;;5094481;28;20098;-81
2022/12/09 00:22:08;;;;;;;15.00;11.10;;;0.00;99.90;;;;;;5095044;28;20047;-80
2022/12/09 00:24:34;;;;;;;18.73;11.37;;;-0.10;99.90;;;;;;5094778;28;20051;-81
2022/12/09 00:26:59;;;;;;;16.90;11.57;;;0.00;99.90;;;;;;5094318;28;20489;-81
2022/12/09 00:29:25;;;;;;;16.87;11.53;;;-0.10;99.90;;;;;;5093878;28;20047;-81
2022/12/09 00:31:51;;;;;;;18.13;11.90;;;-0.10;99.90;;;;;;5094925;28;20070;-81
2022/12/09 00:34:16;;;;;;;18.00;11.90;;;-0.10;99.90;;;;;;5094687;28;20067;-81
2022/12/09 00:36:42;;;;;;;17.73;12.40;;;-0.10;99.90;;;;;;5076547;28;20051;-81
2022/12/09 00:39:10;;;;;;;16.50;12.03;;;-0.10;99.90;;;;;;5094709;28;20052;-81
2022/12/09 00:41:37;;;;;;;17.50;12.20;;;-0.10;99.90;;;;;;5093435;28;20047;-81
2022/12/09 00:44:03;;;;;;;18.17;12.00;;;-0.10;99.90;;;;;;5093657;28;20457;-81
2022/12/09 00:46:29;;;;;;;17.40;11.60;;;-0.10;99.90;;;;;;5094190;28;20476;-81
2022/12/09 00:48:55;;;;;;;18.07;12.13;;;-0.10;99.90;;;;;;5094247;28;20089;-81
2022/12/09 00:51:23;;;;;;;17.15;11.85;;;-0.20;99.90;;;;;;5094491;28;20139;-81
2022/12/09 00:53:54;;;;;;;17.20;12.18;;;-0.10;99.90;;;;;;5093270;28;20075;-81
2022/12/09 00:56:26;;;;;;;19.83;12.77;;;-0.20;99.90;;;;;;5093691;28;20074;-81
2022/12/09 00:58:53;;;;;;;21.67;12.48;;;0.00;99.90;;;;;;5092875;28;20048;-81
2022/12/09 01:01:18;;;;;;;18.08;13.30;;;-0.10;99.90;;;;;;5094448;28;20043;-81
2022/12/09 01:03:44;;;;;;;19.93;13.00;;;-0.10;99.90;;;;;;5094135;28;20056;-81
2022/12/09 01:06:17;;;;;;;16.70;11.97;;;-0.20;99.90;;;;;;5093231;28;20048;-81
2022/12/09 01:08:42;;;;;;;16.40;11.70;;;-0.20;99.90;;;;;;5093975;28;20145;-81
2022/12/09 01:11:16;;;;;;;16.83;11.57;;;-0.20;99.90;;;;;;5092838;28;20047;-81
2022/12/09 01:13:42;;;;;;;17.00;11.93;;;-0.20;99.90;;;;;;5092839;28;20051;-82
2022/12/09 01:16:23;;;;;;;19.53;13.10;;;-0.20;99.90;;;;;;5092532;28;20084;-81
2022/12/09 01:18:50;;;;;;;17.70;12.15;;;-0.30;99.90;;;;;;5092532;28;20070;-81
2022/12/09 01:21:16;;;;;;;16.20;11.15;;;-0.30;99.90;;;;;;5076170;28;20134;-81
2022/12/09 01:23:43;;;;;;;16.38;11.38;;;-0.30;99.90;;;;;;5075732;28;20059;-81
2022/12/09 01:26:09;;;;;;;17.83;11.30;;;-0.30;99.90;;;;;;5094057;28;20060;-81
2022/12/09 01:28:36;;;;;;;19.88;11.18;;;-0.30;99.90;;;;;;5093754;28;20040;-80
2022/12/09 01:31:21;;;;;;;17.83;11.95;;;-0.40;99.90;;;;;;5093445;28;20044;-81
2022/12/09 01:33:47;;;;;;;18.85;12.60;;;-0.40;99.90;;;;;;5093630;28;20055;-81
2022/12/09 01:36:16;;;;;;;18.07;12.47;;;0.00;99.90;;;;;;5092721;28;20106;-81
2022/12/09 01:38:42;;;;;;;17.83;12.00;;;-0.20;99.90;;;;;;5092267;28;20047;-83
2022/12/09 01:41:07;;;;;;;16.77;12.13;;;-0.40;99.90;;;;;;5092593;28;20442;-80
2022/12/09 01:43:33;;;;;;;17.67;11.53;;;-0.40;99.90;;;;;;5093550;28;20054;-80
2022/12/09 01:45:59;;;;;;;20.20;12.07;;;-0.50;99.90;;;;;;5093258;28;20048;-81
2022/12/09 01:48:30;;;;;;;17.00;11.43;;;-0.50;99.90;;;;;;5093450;28;20051;-81
2022/12/09 01:51:04;;;;;;;21.23;12.82;;;-0.40;99.90;;;;;;5093219;28;20438;-79
2022/12/09 01:53:34;;;;;;;15.95;10.80;;;-0.50;99.90;;;;;;5075800;28;20044;-81
2022/12/09 01:56:06;;;;;;;18.35;12.43;;;-0.50;99.90;;;;;;5093128;28;20048;-81
2022/12/09 01:58:31;;;;;;;17.92;11.65;;;-0.50;99.90;;;;;;5092208;28;20048;-81
2022/12/09 02:00:57;;;;;;;19.33;11.60;;;-0.50;99.90;;;;;;5093029;28;20051;-81
2022/12/09 02:03:23;;;;;;;17.10;11.47;;;-0.50;99.90;;;;;;5093237;28;20551;-80
2022/12/09 02:05:49;;;;;;;15.83;11.43;;;-0.50;99.90;;;;;;5075215;28;20048;-80
2022/12/09 02:08:17;;;;;;;17.37;11.67;;;-0.50;99.90;;;;;;5075471;28;20044;-80
2022/12/09 02:11:11;;;;;;;18.25;11.68;;;-0.60;99.90;;;;;;5093184;28;20047;-80
2022/12/09 02:14:01;;;;;;;18.08;10.82;;;-0.50;99.90;;;;;;5075460;28;20109;-80
2022/12/09 02:16:33;;;;;;;18.13;12.48;;;-0.60;99.90;;;;;;5093264;28;20139;-80
2022/12/09 02:19:13;;;;;;;18.73;11.43;;;-0.60;99.90;;;;;;5091605;28;20093;-80
2022/12/09 02:21:56;;;;;;;18.88;11.43;;;-0.60;99.90;;;;;;5091828;28;20098;-80
2022/12/09 02:24:37;;;;;;;18.73;11.90;;;-0.60;99.90;;;;;;5093161;28;20502;-80
2022/12/09 02:27:27;;;;;;;18.27;11.23;;;-0.60;99.90;;;;;;5093660;28;20044;-80
2022/12/09 02:30:03;;;;;;;20.88;10.95;;;-0.60;99.90;;;;;;5096044;28;20160;-81
2022/12/09 02:32:49;;;;;;;16.30;10.95;;;-0.60;99.90;;;;;;5096120;28;20044;-80
2022/12/09 02:35:38;;;;;;;17.40;11.95;;;-0.60;99.90;;;;;;5096259;28;20051;-80
2022/12/09 02:38:22;;;;;;;21.42;12.13;;;-0.60;99.90;;;;;;5096673;28;20040;-80
2022/12/09 02:40:55;;;;;;;18.95;11.15;;;-0.60;99.90;;;;;;5096003;28;20055;-80
2022/12/09 02:43:24;;;;;;;16.02;10.90;;;-0.60;99.90;;;;;;5096027;28;20135;-80
2022/12/09 02:45:52;;;;;;;18.45;11.95;;;-0.60;99.90;;;;;;5096936;28;20047;-84
2022/12/09 02:48:23;;;;;;;19.88;12.43;;;-0.70;99.90;;;;;;5096799;28;20044;-80
2022/12/09 02:50:51;;;;;;;19.40;12.63;;;-0.80;99.90;;;;;;5096854;28;20040;-80
2022/12/09 02:53:17;;;;;;;20.35;12.60;;;-0.70;99.90;;;;;;5095488;28;20047;-80
2022/12/09 02:55:46;;;;;;;17.13;11.85;;;-0.70;99.90;;;;;;5096582;28;20134;-80
2022/12/09 02:58:12;;;;;;;18.13;11.80;;;-0.70;99.90;;;;;;5096308;28;20106;-80
2022/12/09 03:00:39;;;;;;;19.17;12.43;;;-0.70;99.90;;;;;;5095568;28;20044;-80
2022/12/09 03:03:08;;;;;;;19.92;11.95;;;-0.70;99.90;;;;;;5077835;28;20048;-81
2022/12/09 03:05:50;;;;;;;18.17;12.10;;;-0.70;99.90;;;;;;5096450;28;20101;-81
2022/12/09 03:08:36;;;;;;;20.92;13.07;;;-0.70;99.90;;;;;;5096281;28;20131;-80
2022/12/09 03:11:09;;;;;;;16.48;11.73;;;-0.70;99.90;;;;;;5095307;28;20392;-81
2022/12/09 03:14:06;;;;;;;19.75;11.38;;;-0.70;99.90;;;;;;5096287;28;20533;-80
2022/12/09 03:16:36;;;;;;;18.13;11.63;;;-0.70;99.90;;;;;;5090901;28;20106;-80
2022/12/09 03:19:26;;;;;;;18.27;11.82;;;-0.70;99.90;;;;;;5095921;28;20043;-81
2022/12/09 03:21:56;;;;;;;18.88;12.07;;;-0.70;99.90;;;;;;5078396;28;20052;-80
2022/12/09 03:24:27;;;;;;;18.98;11.60;;;-0.70;99.90;;;;;;5094709;28;20488;-80
2022/12/09 03:26:53;;;;;;;19.00;12.48;;;-0.70;99.90;;;;;;5096063;28;20052;-80
2022/12/09 03:29:23;;;;;;;19.23;11.60;;;-0.90;99.90;;;;;;5094539;28;20066;-80
2022/12/09 03:31:51;;;;;;;20.38;12.82;;;-0.80;99.90;;;;;;5096256;28;20399;-80
2022/12/09 03:34:21;;;;;;;18.38;12.13;;;-0.80;99.90;;;;;;5095513;28;20040;-80
2022/12/09 03:36:49;;;;;;;20.50;12.18;;;-0.80;99.90;;;;;;5095878;28;20044;-80
2022/12/09 03:39:20;;;;;;;19.63;11.52;;;-0.70;99.90;;;;;;5094074;28;20396;-81
2022/12/09 03:41:53;;;;;;;17.25;11.88;;;-0.80;99.90;;;;;;5095196;28;20444;-81
2022/12/09 03:44:24;;;;;;;22.15;11.80;;;-0.80;99.90;;;;;;5094517;28;20476;-80
2022/12/09 03:46:50;;;;;;;16.25;11.25;;;-0.70;99.90;;;;;;5095815;28;20048;-80
2022/12/09 03:49:16;;;;;;;18.48;11.80;;;-0.80;99.90;;;;;;5094145;28;20400;-81
2022/12/09 03:51:55;;;;;;;17.17;11.57;;;-0.80;99.90;;;;;;5094259;28;20051;-81
2022/12/09 03:54:27;;;;;;;17.25;11.85;;;-0.80;99.90;;;;;;5095467;28;20437;-81
2022/12/09 03:56:56;;;;;;;18.83;11.65;;;-0.80;99.90;;;;;;5095545;28;20052;-81
2022/12/09 03:59:24;;;;;;;18.70;11.88;;;-0.90;99.90;;;;;;5095164;28;20105;-81
2022/12/09 04:01:51;;;;;;;16.77;11.48;;;-0.90;99.90;;;;;;5094200;28;20083;-81
2022/12/09 04:04:17;;;;;;;18.90;12.05;;;-0.90;99.90;;;;;;5093992;28;20048;-81
2022/12/09 04:06:42;;;;;;;17.80;12.77;;;-0.90;99.90;;;;;;5094032;28;20424;-81
2022/12/09 04:09:10;;;;;;;17.07;11.70;;;-0.80;99.90;;;;;;5077259;28;20123;-82
2022/12/09 04:11:36;;;;;;;20.50;12.00;;;-0.90;99.90;;;;;;5094078;28;20048;-81
2022/12/09 04:14:02;;;;;;;17.33;11.37;;;-0.80;99.90;;;;;;5076908;28;20461;-84
2022/12/09 04:16:28;;;;;;;18.97;11.17;;;-0.90;99.90;;;;;;5077219;28;20134;-81
2022/12/09 04:18:54;;;;;;;17.92;11.90;;;-0.80;99.90;;;;;;5093996;28;20036;-86
2022/12/09 04:21:19;;;;;;;16.27;11.00;;;-0.90;99.90;;;;;;5093769;28;20067;-86
2022/12/09 04:23:45;;;;;;;19.40;12.33;;;-0.90;99.90;;;;;;5094222;28;20040;-85
2022/12/09 04:26:19;;;;;;;18.10;11.87;;;-0.90;99.90;;;;;;5094638;28;20424;-86
2022/12/09 04:28:45;;;;;;;17.02;10.77;;;-0.80;99.90;;;;;;5094111;28;20052;-85
2022/12/09 04:31:12;;;;;;;15.80;10.70;;;-0.90;99.90;;;;;;5076922;28;20428;-85
2022/12/09 04:33:39;;;;;;;17.48;12.82;;;-0.90;99.90;;;;;;5094843;28;20484;-84
2022/12/09 04:36:07;;;;;;;18.85;11.75;;;-1.00;99.90;;;;;;5093356;28;20054;-84
2022/12/09 04:38:32;;;;;;;17.75;12.23;;;-1.00;99.90;;;;;;5094634;28;20047;-84
2022/12/09 04:40:59;;;;;;;17.93;11.40;;;-0.90;99.90;;;;;;5094695;28;20036;-85
2022/12/09 04:43:25;;;;;;;16.67;11.18;;;-0.90;99.90;;;;;;5093452;28;20047;-85
2022/12/09 04:45:51;;;;;;;18.73;11.93;;;-1.00;99.90;;;;;;5076647;28;20047;-84
2022/12/09 04:48:16;;;;;;;16.67;11.47;;;-1.00;99.90;;;;;;5093119;28;20085;-85
2022/12/09 04:50:42;;;;;;;18.73;12.43;;;-1.00;99.90;;;;;;5075762;28;20051;-83
2022/12/09 04:53:08;;;;;;;21.03;12.27;;;-1.00;99.90;;;;;;5094237;28;20101;-81
2022/12/09 04:55:34;;;;;;;18.87;12.30;;;-1.00;99.90;;;;;;5076435;28;20097;-81
2022/12/09 04:57:59;;;;;;;18.40;12.13;;;-1.00;99.90;;;;;;5094286;28;20043;-80
2022/12/09 05:00:25;;;;;;;19.73;11.83;;;-1.00;99.90;;;;;;5093993;28;20055;-80
2022/12/09 05:02:51;;;;;;;18.47;12.00;;;-1.10;99.90;;;;;;5094226;28;20060;-80
2022/12/09 05:05:17;;;;;;;16.83;11.93;;;-1.00;99.90;;;;;;5092903;28;20059;-80
2022/12/09 05:07:42;;;;;;;19.93;13.60;;;-1.00;99.90;;;;;;5093099;28;20055;-80
2022/12/09 05:10:09;;;;;;;21.30;12.90;;;-1.10;99.90;;;;;;5076063;28;20040;-85
2022/12/09 05:12:35;;;;;;;21.80;12.18;;;-1.00;99.90;;;;;;5094053;28;20048;-80
2022/12/09 05:15:00;;;;;;;20.73;13.23;;;-1.00;99.90;;;;;;5093983;28;20557;-80
2022/12/09 05:17:26;;;;;;;19.77;11.57;;;-1.00;99.90;;;;;;5075612;28;20305;-80
2022/12/09 05:19:52;;;;;;;20.00;12.67;;;-1.00;99.90;;;;;;5093984;28;20097;-80
2022/12/09 05:22:18;;;;;;;19.63;12.20;;;-1.00;99.90;;;;;;5093586;28;20381;-80
2022/12/09 05:24:45;;;;;;;18.90;11.87;;;-1.00;99.90;;;;;;5075926;28;20052;-80
2022/12/09 05:27:11;;;;;;;18.13;11.52;;;-1.00;99.90;;;;;;5092505;28;20153;-82
2022/12/09 05:29:37;;;;;;;18.92;12.77;;;-1.00;99.90;;;;;;5093030;28;20119;-80
2022/12/09 05:32:03;;;;;;;19.30;11.83;;;-1.00;99.90;;;;;;5092631;28;20205;-80
2022/12/09 05:34:29;;;;;;;19.37;12.13;;;-1.00;99.90;;;;;;5093362;28;20118;-81
2022/12/09 05:36:55;;;;;;;17.07;11.90;;;-1.00;99.90;;;;;;5092255;28;20480;-80
2022/12/09 05:39:20;;;;;;;17.60;12.07;;;-1.10;99.90;;;;;;5092294;28;20062;-80
2022/12/09 05:41:46;;;;;;;20.20;13.40;;;-1.00;99.90;;;;;;5092548;28;20047;-80
2022/12/09 05:44:12;;;;;;;21.27;12.83;;;-1.00;99.90;;;;;;5093867;28;20056;-80
2022/12/09 05:46:38;;;;;;;18.98;12.32;;;-1.00;99.90;;;;;;5075282;28;20123;-81
2022/12/09 05:49:04;;;;;;;18.37;11.93;;;-1.00;99.90;;;;;;5092301;28;20126;-80
2022/12/09 05:51:30;;;;;;;20.67;13.30;;;-1.10;99.90;;;;;;5091873;28;20047;-81
2022/12/09 05:54:00;;;;;;;18.92;11.73;;;-1.10;99.90;;;;;;5092544;28;20097;-79
2022/12/09 05:56:26;;;;;;;17.88;12.20;;;-1.10;99.90;;;;;;5093012;28;20052;-80
2022/12/09 05:58:53;;;;;;;21.73;13.47;;;-1.10;99.90;;;;;;5091970;28;20371;-81
2022/12/09 06:01:19;;;;;;;21.65;13.02;;;-1.10;99.90;;;;;;5091829;28;20480;-81
2022/12/09 06:03:46;;;;;;;21.48;14.02;;;-1.10;99.90;;;;;;5091625;28;20097;-80
2022/12/09 06:06:14;;;;;;;21.30;13.57;;;-1.10;99.90;;;;;;5092285;28;20103;-80
2022/12/09 06:08:42;;;;;;;20.65;12.77;;;-1.10;99.90;;;;;;5092042;28;20143;-80
2022/12/09 06:11:17;;;;;;;22.15;14.45;;;-1.10;99.90;;;;;;5092098;28;20040;-80
2022/12/09 06:13:44;;;;;;;20.33;14.15;;;-1.10;99.90;;;;;;5093103;28;20070;-80
2022/12/09 06:16:11;;;;;;;19.15;13.30;;;-1.10;99.90;;;;;;5093105;28;20449;-80
2022/12/09 06:18:37;;;;;;;22.13;14.30;;;-1.00;99.90;;;;;;5091558;28;20036;-81
2022/12/09 06:21:07;;;;;;;18.93;12.47;;;-1.00;99.90;;;;;;5091710;28;20069;-80
2022/12/09 06:23:38;;;;;;;18.63;12.63;;;-1.00;99.90;;;;;;5091452;28;20074;-80
2022/12/09 06:26:04;;;;;;;20.17;13.73;;;-1.00;99.90;;;;;;5093217;28;20048;-80
2022/12/09 06:28:30;;;;;;;21.02;13.57;;;-0.90;99.90;;;;;;5091666;28;20044;-80
2022/12/09 06:30:56;;;;;;;25.05;14.73;;;-1.00;99.90;;;;;;5092883;28;20040;-81
2022/12/09 06:33:22;;;;;;;20.55;14.20;;;-0.90;99.90;;;;;;5091663;28;20085;-80
2022/12/09 06:35:48;;;;;;;24.77;14.37;;;-1.00;99.90;;;;;;5091948;28;20383;-80
2022/12/09 06:38:14;;;;;;;24.03;14.20;;;-1.00;99.90;;;;;;5092628;28;20298;-80
2022/12/09 06:40:41;;;;;;;22.97;13.47;;;-1.00;99.90;;;;;;5091669;28;20136;-80
2022/12/09 06:43:07;;;;;;;24.83;14.52;;;-1.00;99.90;;;;;;5092866;28;20097;-79
2022/12/09 06:45:34;;;;;;;25.50;16.13;;;-1.00;99.90;;;;;;5092503;28;20069;-81
2022/12/09 06:47:59;;;;;;;25.35;15.30;;;-1.00;99.90;;;;;;5091867;28;20392;-81
2022/12/09 06:50:25;;;;;;;26.20;15.80;;;-0.90;99.90;;;;;;5091317;28;20051;-81
2022/12/09 06:52:51;;;;;;;26.20;15.47;;;-1.00;99.90;;;;;;5091615;28;20476;-80
2022/12/09 06:55:16;;;;;;;27.93;17.70;;;-1.00;99.90;;;;;;5092371;28;20040;-81
2022/12/09 06:57:42;;;;;;;22.50;15.73;;;-0.90;99.90;;;;;;5074365;28;20131;-81
2022/12/09 07:00:08;;;;;;;28.37;18.07;;;-0.90;99.90;;;;;;5091713;28;20040;-80
2022/12/09 07:02:34;;;;;;;32.10;23.00;;;-0.90;99.90;;;;;;5092052;28;20063;-80
2022/12/09 07:05:00;;;;;;;31.10;20.38;;;-0.90;99.90;;;;;;5091664;28;20048;-80
2022/12/09 07:07:26;;;;;;;29.60;20.43;;;-0.90;99.90;;;;;;5091299;28;20040;-81
2022/12/09 07:09:51;;;;;;;28.67;19.27;;;-0.90;99.90;;;;;;5091612;28;20040;-81
2022/12/09 07:12:17;;;;;;;26.70;18.00;;;-0.90;99.90;;;;;;5092561;28;20094;-82
2022/12/09 07:14:43;;;;;;;26.50;17.73;;;-0.80;99.90;;;;;;5094636;28;21012;-81
2022/12/09 07:17:18;;;;;;;24.07;16.43;;;-0.80;99.90;;;;;;5078102;28;20052;-81
2022/12/09 07:19:44;;;;;;;24.98;16.13;;;-0.80;99.90;;;;;;5078127;28;20044;-81
2022/12/09 07:22:10;;;;;;;28.03;16.93;;;-0.80;99.90;;;;;;5096091;28;20047;-79
2022/12/09 07:24:37;;;;;;;26.93;17.40;;;-0.70;99.90;;;;;;5095845;28;20048;-81
2022/12/09 07:27:06;;;;;;;24.55;15.88;;;-0.70;99.90;;;;;;5061397;28;20389;-80
2022/12/09 07:29:36;;;;;;;23.75;16.40;;;-0.70;99.90;;;;;;5095818;28;20055;-81
2022/12/09 07:32:02;;;;;;;26.70;17.33;;;-0.70;99.90;;;;;;5095894;28;20040;-80
2022/12/09 07:34:27;;;;;;;26.80;17.38;;;-0.70;99.90;;;;;;5077592;28;20055;-81
2022/12/09 07:36:54;;;;;;;29.13;18.10;;;-0.70;99.90;;;;;;5095858;28;20048;-81
2022/12/09 07:39:20;;;;;;;31.15;19.27;;;-0.70;99.90;;;;;;5078014;28;20055;-81
2022/12/09 07:41:55;;;;;;;31.58;18.42;;;-0.70;99.90;;;;;;5094522;28;20488;-80
2022/12/09 07:44:21;;;;;;;31.27;19.52;;;-0.60;99.90;;;;;;5096026;28;20052;-80
2022/12/09 07:46:47;;;;;;;92.35;25.35;;;-0.50;99.90;;;;;;5111231;28;20040;-80
2022/12/09 07:49:13;;;;;;;95.87;26.80;;;-0.40;99.90;;;;;;5094752;28;20048;-80
2022/12/09 07:51:40;;;;;;;100.15;27.70;;;-0.40;99.90;;;;;;5095307;28;20131;-80
2022/12/09 07:54:05;;;;;;;80.15;27.42;;;-0.30;99.90;;;;;;5095640;28;20046;-80
2022/12/09 07:56:31;;;;;;;71.27;25.93;;;-0.20;99.90;;;;;;5095252;28;20044;-81
2022/12/09 07:58:57;;;;;;;168.00;29.67;;;-0.20;99.90;;;;;;5094273;28;20040;-80
2022/12/09 08:01:27;;;;;;;105.88;28.83;;;-0.10;99.90;;;;;;5077764;28;20139;-81
2022/12/09 08:03:54;;;;;;;76.43;27.13;;;-0.10;99.90;;;;;;5093616;28;20096;-81
2022/12/09 08:06:22;;;;;;;102.53;27.85;;;0.00;99.90;;;;;;5094281;28;20044;-81
2022/12/09 08:08:48;;;;;;;72.03;26.13;;;-0.10;99.90;;;;;;5093984;28;20396;-78
2022/12/09 08:11:17;;;;;;;76.00;28.15;;;0.10;99.90;;;;;;5095180;28;20075;-79
2022/12/09 08:13:43;;;;;;;187.98;31.92;;;0.10;99.90;;;;;;5093751;28;20102;-79
2022/12/09 08:16:11;;;;;;;115.60;28.85;;;0.10;99.90;;;;;;5094127;28;20044;-80
2022/12/09 08:18:37;;;;;;;85.10;27.67;;;0.10;99.90;;;;;;5094779;28;20395;-80
2022/12/09 08:21:05;;;;;;;86.40;28.17;;;0.20;99.90;;;;;;5095378;28;20461;-80
2022/12/09 08:23:31;;;;;;;78.85;29.20;;;0.20;99.90;;;;;;5093984;28;20047;-79
2022/12/09 08:25:57;;;;;;;65.60;26.97;;;0.30;99.90;;;;;;5092615;28;20054;-78
2022/12/09 08:28:23;;;;;;;68.23;26.63;;;0.20;99.90;;;;;;5094109;28;20487;-81
2022/12/09 08:30:49;;;;;;;109.05;29.73;;;0.30;99.90;;;;;;5094660;28;20040;-81
2022/12/09 08:33:15;;;;;;;98.45;27.27;;;0.30;99.90;;;;;;5093753;28;20480;-80
2022/12/09 08:35:41;;;;;;;123.80;28.90;;;0.30;99.90;;;;;;5094481;28;20050;-81
2022/12/09 08:38:07;;;;;;;103.47;31.17;;;0.30;99.90;;;;;;5093555;28;20101;-80
2022/12/09 08:40:33;;;;;;;70.50;27.00;;;0.50;99.90;;;;;;5094772;28;20060;-80
2022/12/09 08:42:59;;;;;;;58.30;26.43;;;0.40;99.90;;;;;;5093423;28;20101;-79
2022/12/09 08:45:25;;;;;;;51.67;25.17;;;0.40;99.90;;;;;;5094633;28;20476;-80
2022/12/09 08:47:50;;;;;;;62.50;25.70;;;0.40;99.90;;;;;;5093126;28;20537;-80
2022/12/09 08:50:16;;;;;;;58.80;25.23;;;0.40;99.90;;;;;;5093367;28;20039;-80
2022/12/09 08:52:42;;;;;;;68.80;25.53;;;0.40;99.90;;;;;;5076382;28;20491;-80
2022/12/09 08:55:08;;;;;;;60.27;25.03;;;0.50;99.90;;;;;;5093374;28;20052;-79
2022/12/09 08:57:34;;;;;;;54.78;24.50;;;0.50;99.90;;;;;;5093263;28;20043;-80
2022/12/09 09:00:00;;;;;;;53.75;23.77;;;0.50;99.90;;;;;;5094094;28;20560;-79
2022/12/09 09:02:26;;;;;;;69.00;25.40;;;0.50;99.90;;;;;;5093867;28;20052;-79
2022/12/09 09:04:52;;;;;;;70.93;25.60;;;0.50;99.90;;;;;;5094066;28;20099;-80
2022/12/09 09:07:17;;;;;;;60.80;26.20;;;0.50;99.90;;;;;;5094265;28;20126;-78
2022/12/09 09:09:43;;;;;;;50.67;25.17;;;0.50;99.90;;;;;;5092624;28;20395;-80
2022/12/09 09:12:09;;;;;;;51.33;23.97;;;0.60;99.90;;;;;;5094441;28;20047;-79
2022/12/09 09:14:34;;;;;;;80.87;26.43;;;0.60;99.90;;;;;;5076253;28;20498;-78
2022/12/09 09:17:00;;;;;;;60.40;26.60;;;0.60;99.90;;;;;;5092750;28;20105;-78
2022/12/09 09:19:26;;;;;;;84.70;27.33;;;0.60;99.90;;;;;;5092702;28;20139;-78
2022/12/09 09:21:53;;;;;;;93.37;26.63;;;0.60;99.90;;;;;;5093651;28;20051;-78
2022/12/09 09:24:21;;;;;;;75.30;26.13;;;0.60;99.90;;;;;;5092657;28;20373;-76
2022/12/09 09:26:49;;;;;;;78.75;27.27;;;0.70;99.90;;;;;;5075664;28;20059;-85
2022/12/09 09:29:16;;;;;;;78.40;26.38;;;0.60;99.90;;;;;;5094072;28;20107;-84
2022/12/09 09:31:42;;;;;;;64.38;28.30;;;0.70;99.90;;;;;;5092539;28;20052;-82
2022/12/09 09:34:08;;;;;;;66.57;27.13;;;0.60;99.90;;;;;;5093773;28;20388;-78
2022/12/09 09:36:33;;;;;;;73.47;26.90;;;0.80;99.90;;;;;;5093493;28;20282;-78
2022/12/09 09:38:59;;;;;;;87.33;27.47;;;0.90;99.90;;;;;;5093304;28;20051;-78
2022/12/09 09:41:41;;;;;;;70.67;26.67;;;0.90;99.90;;;;;;5093676;28;20480;-80
2022/12/09 09:44:25;;;;;;;75.03;27.85;;;0.90;99.90;;;;;;5093673;28;20040;-78
2022/12/09 09:46:52;;;;;;;75.78;28.52;;;0.90;99.90;;;;;;5093405;28;20066;-78
2022/12/09 09:49:30;;;;;;;144.18;30.50;;;0.90;99.90;;;;;;5093510;28;20054;-78
2022/12/09 09:51:56;;;;;;;98.13;29.40;;;0.90;99.90;;;;;;5093362;28;20058;-78
2022/12/09 09:54:22;;;;;;;66.10;27.90;;;0.80;99.90;;;;;;5093723;28;20131;-78
2022/12/09 09:57:09;;;;;;;92.20;29.70;;;0.80;99.90;;;;;;5093167;28;20277;-82
2022/12/09 09:59:52;;;;;;;64.43;27.00;;;0.90;99.90;;;;;;5093410;28;20044;-78
2022/12/09 10:02:38;;;;;;;89.80;27.63;;;0.90;99.90;;;;;;5093369;28;20074;-76
2022/12/09 10:05:15;;;;;;;70.03;28.15;;;0.90;99.90;;;;;;5091539;28;20055;-81
2022/12/09 10:07:45;;;;;;;75.82;27.27;;;0.90;99.90;;;;;;5092285;28;20051;-81
2022/12/09 10:10:26;;;;;;;87.25;28.25;;;1.00;99.90;;;;;;5093144;28;20044;-84
2022/12/09 10:12:58;;;;;;;75.80;28.52;;;1.00;99.90;;;;;;5092419;28;20499;-77
2022/12/09 10:15:29;;;;;;;78.53;26.27;;;1.00;99.90;;;;;;5093255;28;20044;-77
2022/12/09 10:18:36;;;;;;;75.22;27.25;;;1.00;99.90;;;;;;5093184;28;20040;-77
2022/12/09 10:21:19;;;;;;;78.20;26.95;;;1.10;99.90;;;;;;5087029;28;20047;-77
2022/12/09 10:23:46;;;;;;;70.95;26.30;;;1.10;99.90;;;;;;5073022;28;20090;-77
2022/12/09 10:26:22;;;;;;;89.28;27.55;;;1.10;99.90;;;;;;5072623;28;20082;-77
2022/12/09 10:28:56;;;;;;;52.15;25.15;;;1.10;99.90;;;;;;5072905;28;20117;-76
2022/12/09 10:31:24;;;;;;;75.90;28.85;;;1.10;99.90;;;;;;5071689;28;20132;-76
2022/12/09 10:33:49;;;;;;;54.55;26.10;;;1.20;99.90;;;;;;5072508;28;20472;-76
2022/12/09 10:36:23;;;;;;;65.17;26.33;;;1.20;99.90;;;;;;5077493;28;20072;-79
2022/12/09 10:38:49;;;;;;;62.63;26.30;;;;;;;;;;5096016;28;20048;-78
2022/12/09 10:44:30;;;;;;;115.72;26.38;;;1.30;99.90;;;;;;5091809;28;20060;-77
2022/12/09 10:47:03;;;;;;;43.47;23.90;;;1.30;99.90;;;;;;5091573;28;20131;-78
2022/12/09 10:49:30;;;;;;;68.35;25.02;;;;;;;;;;5096171;28;20052;-77
2022/12/09 10:51:57;;;;;;;60.70;26.30;;;1.30;99.90;;;;;;5078793;28;20395;-77
2022/12/09 10:54:28;;;;;;;57.20;24.75;;;1.30;99.90;;;;;;5096767;28;20185;-83
2022/12/09 10:57:03;;;;;;;51.67;23.40;;;;;;;;;;5078569;28;20147;-81
2022/12/09 10:59:30;;;;;;;46.90;24.13;;;;;;;;;;5096690;28;20087;-77
2022/12/09 11:01:57;;;;;;;53.80;24.65;;;1.30;99.90;;;;;;5095412;28;20047;-81
2022/12/09 11:04:30;;;;;;;52.75;25.33;;;1.60;99.90;;;;;;5095084;28;20052;-85
2022/12/09 11:07:00;;;;;;;89.53;26.23;;;1.40;99.90;;;;;;5096368;28;20044;-82
2022/12/09 11:09:29;;;;;;;57.70;25.45;;;1.30;99.90;;;;;;5095646;28;20056;-83
2022/12/09 11:11:55;;;;;;;56.25;23.92;;;;;;;;;;5096411;28;20051;-78
2022/12/09 11:14:47;;;;;;;82.18;25.13;;;1.40;99.90;;;;;;5096356;28;20122;-80
2022/12/09 11:17:21;;;;;;;77.65;25.23;;;;;;;;;;5096073;28;20055;-79
2022/12/09 11:19:50;;;;;;;96.82;25.73;;;;;;;;;;5096281;28;20051;-78
2022/12/09 11:22:22;;;;;;;62.20;25.23;;;;;;;;;;5078077;28;20155;-78
2022/12/09 11:24:48;;;;;;;86.55;26.38;;;;;;;;;;5096371;28;20403;-78
2022/12/09 11:27:34;;;;;;;51.08;24.05;;;;;;;;;;5095869;28;20055;-79
2022/12/09 11:30:13;;;;;;;70.20;26.33;;;;;;;;;;5095878;28;20048;-78
2022/12/09 11:33:13;;;;;;;61.53;25.20;;;1.60;99.90;;;;;;5096147;28;20458;-78
2022/12/09 11:35:45;;;;;;;53.45;25.92;;;;;;;;;;5060000;28;20052;-78
2022/12/09 11:38:16;;;;;;;69.63;25.05;;;;;;;;;;5094531;28;20055;-79
2022/12/09 11:40:42;;;;;;;58.85;24.85;;;1.70;99.90;;;;;;5095905;28;20048;-80
2022/12/09 11:43:09;;;;;;;53.22;25.85;;;1.60;99.90;;;;;;5095483;28;20076;-79
2022/12/09 11:45:38;;;;;;;59.95;24.65;;;1.60;99.90;;;;;;5095758;28;20052;-79
2022/12/09 11:48:33;;;;;;;43.90;23.45;;;1.70;99.90;;;;;;5094392;28;20048;-78
2022/12/09 11:51:00;;;;;;;124.68;25.95;;;1.60;99.90;;;;;;5081694;28;20063;-78
2022/12/09 11:53:29;;;;;;;82.00;24.45;;;1.60;99.90;;;;;;5095559;28;20506;-85
2022/12/09 11:56:04;;;;;;;50.60;24.52;;;1.60;99.90;;;;;;5095909;28;20126;-87
2022/12/09 11:58:44;;;;;;;60.13;25.77;;;1.60;99.90;;;;;;5097718;28;20047;-86
2022/12/09 12:01:31;;;;;;;56.00;24.92;;;1.60;99.90;;;;;;5094410;28;20381;-88
2022/12/09 12:04:06;;;;;;;77.60;25.95;;;1.60;99.90;;;;;;5095295;28;20051;-86
2022/12/09 12:06:44;;;;;;;77.55;25.02;;;1.60;99.90;;;;;;5094787;28;20048;-85
2022/12/09 12:09:25;;;;;;;68.88;31.02;;;1.60;99.90;;;;;;5077313;28;20056;-86
2022/12/09 12:12:23;;;;;;;69.40;25.27;;;1.50;99.90;;;;;;5077504;28;20484;-86
2022/12/09 12:14:49;;;;;;;50.00;25.60;;;1.60;99.90;;;;;;5095372;28;20048;-81
2022/12/09 12:17:34;;;;;;;80.13;27.17;;;1.50;99.90;;;;;;5094850;28;20113;-85
2022/12/09 12:19:59;;;;;;;60.45;27.95;;;1.50;99.90;;;;;;5101199;28;20044;-82
2022/12/09 12:22:48;;;;;;;52.20;26.60;;;1.60;99.90;;;;;;5108261;28;20122;-81
2022/12/09 12:25:26;;;;;;;53.65;26.52;;;1.60;99.90;;;;;;5115226;28;20048;-87
2022/12/09 12:28:17;;;;;;;86.22;27.50;;;1.60;99.90;;;;;;5114585;28;20376;-85
2022/12/09 12:30:55;;;;;;;84.32;30.40;;;1.60;99.90;;;;;;5115393;28;20048;-87
2022/12/09 12:33:54;;;;;;;60.78;30.08;;;1.60;99.90;;;;;;5115117;28;20058;-85
2022/12/09 12:36:38;;;;;;;65.28;27.45;;;1.60;99.90;;;;;;5106657;28;20055;-85
2022/12/09 12:39:14;;;;;;;50.33;26.88;;;1.60;99.90;;;;;;5109405;28;20040;-79
2022/12/09 12:42:11;;;;;;;52.35;27.00;;;1.70;99.90;;;;;;5092634;28;20518;-82
2022/12/09 12:48:07;;;;;;;68.07;30.05;;;1.70;99.90;;;;;;5092665;28;20048;-80
2022/12/09 12:50:53;;;;;;;50.15;27.83;;;1.70;99.90;;;;;;5092291;28;20060;-80
2022/12/09 12:53:51;;;;;;;68.05;29.95;;;1.60;99.90;;;;;;5093173;28;20043;-81